sensor_id;sensor_type;location;lat;lon;timestamp;pressure;altitude;pressure_sealevel;temperature;humidity
73383;BME280;61600;48.126;11.542;2023-02-28T00:01:09;96076.97;;;0.77;57.69
73383;BME280;61600;48.126;11.542;2023-02-28T00:03:35;96077.41;;;0.68;57.91
73383;BME280;61600;48.126;11.542;2023-02-28T00:06:04;96071.28;;;0.61;57.77
73383;BME280;61600;48.126;11.542;2023-02-28T00:08:30;96075.84;;;0.54;58.66
73383;BME280;61600;48.126;11.542;2023-02-28T00:11:01;96075.44;;;0.50;58.34
73383;BME280;61600;48.126;11.542;2023-02-28T00:13:27;96066.59;;;0.49;58.76
73383;BME280;61600;48.126;11.542;2023-02-28T00:16:05;96067.25;;;0.38;58.57
73383;BME280;61600;48.126;11.542;2023-02-28T00:18:32;96072.38;;;0.40;58.94
73383;BME280;61600;48.126;11.542;2023-02-28T00:20:58;96064.34;;;0.46;58.98
73383;BME280;61600;48.126;11.542;2023-02-28T00:23:25;96060.66;;;0.41;59.07
73383;BME280;61600;48.126;11.542;2023-02-28T00:25:51;96056.97;;;0.35;59.15
73383;BME280;61600;48.126;11.542;2023-02-28T00:28:17;96058.19;;;0.39;59.18
73383;BME280;61600;48.126;11.542;2023-02-28T00:30:43;96057.59;;;0.37;58.87
73383;BME280;61600;48.126;11.542;2023-02-28T00:33:09;96054.50;;;0.40;58.83
73383;BME280;61600;48.126;11.542;2023-02-28T00:35:35;96064.16;;;0.41;58.90
73383;BME280;61600;48.126;11.542;2023-02-28T00:38:01;96055.34;;;0.34;58.90
73383;BME280;61600;48.126;11.542;2023-02-28T00:40:28;96057.34;;;0.45;59.19
73383;BME280;61600;48.126;11.542;2023-02-28T00:42:53;96061.91;;;0.38;59.08
73383;BME280;61600;48.126;11.542;2023-02-28T00:45:19;96057.59;;;0.37;59.42
73383;BME280;61600;48.126;11.542;2023-02-28T00:47:45;96058.19;;;0.39;59.20
73383;BME280;61600;48.126;11.542;2023-02-28T00:50:12;96056.97;;;0.35;59.21
73383;BME280;61600;48.126;11.542;2023-02-28T00:52:38;96057.25;;;0.21;59.30
73383;BME280;61600;48.126;11.542;2023-02-28T00:55:04;96057.22;;;0.27;59.60
73383;BME280;61600;48.126;11.542;2023-02-28T00:57:30;96055.34;;;0.34;59.04
73383;BME280;61600;48.126;11.542;2023-02-28T00:59:56;96060.50;;;0.29;59.29
73383;BME280;61600;48.126;11.542;2023-02-28T01:02:22;96059.72;;;0.16;59.70
73383;BME280;61600;48.126;11.542;2023-02-28T01:04:48;96061.78;;;0.07;60.07
73383;BME280;61600;48.126;11.542;2023-02-28T01:07:14;96055.81;;;0.12;60.11
73383;BME280;61600;48.126;11.542;2023-02-28T01:09:40;96052.31;;;0.11;60.14
73383;BME280;61600;48.126;11.542;2023-02-28T01:12:07;96046.56;;;0.08;60.13
73383;BME280;61600;48.126;11.542;2023-02-28T01:14:34;96046.53;;;0.14;60.32
73383;BME280;61600;48.126;11.542;2023-02-28T01:17:00;96040.81;;;0.04;60.09
73383;BME280;61600;48.126;11.542;2023-02-28T01:19:26;96048.84;;;0.04;60.35
73383;BME280;61600;48.126;11.542;2023-02-28T01:21:52;96041.88;;;0.03;60.26
73383;BME280;61600;48.126;11.542;2023-02-28T01:24:19;96043.34;;;-0.14;60.73
73383;BME280;61600;48.126;11.542;2023-02-28T01:26:44;96045.59;;;-0.05;60.60
73383;BME280;61600;48.126;11.542;2023-02-28T01:29:10;96041.47;;;-0.14;60.58
73383;BME280;61600;48.126;11.542;2023-02-28T01:31:36;96037.78;;;-0.13;60.66
73383;BME280;61600;48.126;11.542;2023-02-28T01:34:02;96036.34;;;-0.09;60.58
73383;BME280;61600;48.126;11.542;2023-02-28T01:36:28;96028.50;;;-0.10;60.80
73383;BME280;61600;48.126;11.542;2023-02-28T01:38:54;96037.19;;;-0.21;60.87
73383;BME280;61600;48.126;11.542;2023-02-28T01:41:22;96032.44;;;-0.19;60.74
73383;BME280;61600;48.126;11.542;2023-02-28T01:46:15;96027.31;;;-0.14;60.75
73383;BME280;61600;48.126;11.542;2023-02-28T01:48:56;96031.81;;;-0.08;60.61
73383;BME280;61600;48.126;11.542;2023-02-28T01:51:29;96024.41;;;-0.13;60.82
73383;BME280;61600;48.126;11.542;2023-02-28T01:54:00;96032.66;;;-0.08;60.74
73383;BME280;61600;48.126;11.542;2023-02-28T01:56:30;96032.66;;;-0.14;60.67
73383;BME280;61600;48.126;11.542;2023-02-28T01:58:58;96023.41;;;-0.18;60.74
73383;BME280;61600;48.126;11.542;2023-02-28T02:01:26;96028.75;;;-0.18;60.91
73383;BME280;61600;48.126;11.542;2023-02-28T02:03:58;96015.00;;;-0.22;61.08
73383;BME280;61600;48.126;11.542;2023-02-28T02:06:26;96019.94;;;-0.25;61.12
73383;BME280;61600;48.126;11.542;2023-02-28T02:08:54;96015.16;;;-0.17;61.00
73383;BME280;61600;48.126;11.542;2023-02-28T02:11:22;96018.50;;;-0.21;61.22
73383;BME280;61600;48.126;11.542;2023-02-28T02:33:13;96015.78;;;-0.15;61.54
73383;BME280;61600;48.126;11.542;2023-02-28T02:38:59;96004.50;;;-0.23;61.37
73383;BME280;61600;48.126;11.542;2023-02-28T02:41:40;96007.81;;;-0.21;61.77
73383;BME280;61600;48.126;11.542;2023-02-28T02:44:21;96003.06;;;-0.26;61.88
73383;BME280;61600;48.126;11.542;2023-02-28T02:46:53;96011.72;;;-0.37;61.80
73383;BME280;61600;48.126;11.542;2023-02-28T02:49:31;96000.41;;;-0.32;61.96
73383;BME280;61600;48.126;11.542;2023-02-28T02:52:02;96000.59;;;-0.27;62.21
73383;BME280;61600;48.126;11.542;2023-02-28T02:54:36;95993.41;;;-0.33;61.88
73383;BME280;61600;48.126;11.542;2023-02-28T02:57:17;96002.88;;;-0.31;62.00
73383;BME280;61600;48.126;11.542;2023-02-28T02:59:45;96002.28;;;-0.46;62.72
73383;BME280;61600;48.126;11.542;2023-02-28T03:02:13;96000.84;;;-0.48;62.82
73383;BME280;61600;48.126;11.542;2023-02-28T03:04:48;95995.88;;;-0.38;62.73
73383;BME280;61600;48.126;11.542;2023-02-28T03:07:16;95995.47;;;-0.42;62.75
73383;BME280;61600;48.126;11.542;2023-02-28T03:09:52;96001.47;;;-0.46;62.92
73383;BME280;61600;48.126;11.542;2023-02-28T03:12:19;95991.22;;;-0.49;62.62
73383;BME280;61600;48.126;11.542;2023-02-28T03:15:00;95996.94;;;-0.53;62.60
73383;BME280;61600;48.126;11.542;2023-02-28T03:17:49;95989.34;;;-0.49;62.88
73383;BME280;61600;48.126;11.542;2023-02-28T03:23:17;95996.56;;;-0.49;63.16
73383;BME280;61600;48.126;11.542;2023-02-28T03:25:56;96004.97;;;-0.59;63.23
73383;BME280;61600;48.126;11.542;2023-02-28T03:33:54;96004.56;;;-0.43;63.00
73383;BME280;61600;48.126;11.542;2023-02-28T03:36:26;96004.94;;;-0.39;63.05
73383;BME280;61600;48.126;11.542;2023-02-28T03:38:58;95998.38;;;-0.43;63.03
73383;BME280;61600;48.126;11.542;2023-02-28T03:41:36;95998.81;;;-0.46;63.37
73383;BME280;61600;48.126;11.542;2023-02-28T03:44:09;96002.88;;;-0.37;63.42
73383;BME280;61600;48.126;11.542;2023-02-28T03:46:46;95998.41;;;-0.50;63.79
73383;BME280;61600;48.126;11.542;2023-02-28T03:49:22;95997.97;;;-0.40;63.54
73383;BME280;61600;48.126;11.542;2023-02-28T03:51:50;96005.97;;;-0.34;63.41
73383;BME280;61600;48.126;11.542;2023-02-28T03:54:21;96012.34;;;-0.41;63.80
73383;BME280;61600;48.126;11.542;2023-02-28T03:56:54;96005.56;;;-0.37;63.47
73383;BME280;61600;48.126;11.542;2023-02-28T03:59:32;96011.72;;;-0.37;63.30
73383;BME280;61600;48.126;11.542;2023-02-28T04:02:00;96008.22;;;-0.37;63.50
73383;BME280;61600;48.126;11.542;2023-02-28T04:04:25;96005.97;;;-0.34;63.63
73383;BME280;61600;48.126;11.542;2023-02-28T04:07:00;96018.72;;;-0.36;63.47
73383;BME280;61600;48.126;11.542;2023-02-28T04:09:27;96021.59;;;-0.37;63.75
73383;BME280;61600;48.126;11.542;2023-02-28T04:11:53;96023.25;;;-0.43;64.04
73383;BME280;61600;48.126;11.542;2023-02-28T04:14:40;96025.28;;;-0.38;64.18
73383;BME280;61600;48.126;11.542;2023-02-28T04:17:07;96035.38;;;-0.40;63.60
73383;BME280;61600;48.126;11.542;2023-02-28T04:19:33;96033.72;;;-0.41;64.28
73383;BME280;61600;48.126;11.542;2023-02-28T04:21:59;96038.03;;;-0.40;64.60
73383;BME280;61600;48.126;11.542;2023-02-28T04:24:27;96042.75;;;-0.36;64.10
73383;BME280;61600;48.126;11.542;2023-02-28T04:26:55;96040.91;;;-0.29;64.35
73383;BME280;61600;48.126;11.542;2023-02-28T04:29:24;96044.19;;;-0.33;63.80
73383;BME280;61600;48.126;11.542;2023-02-28T04:31:50;96046.66;;;-0.32;64.26
73383;BME280;61600;48.126;11.542;2023-02-28T04:34:19;96046.03;;;-0.27;64.17
73383;BME280;61600;48.126;11.542;2023-02-28T04:36:45;96043.19;;;-0.32;63.57
73383;BME280;61600;48.126;11.542;2023-02-28T04:39:11;96033.91;;;-0.23;64.23
73383;BME280;61600;48.126;11.542;2023-02-28T04:41:37;96035.16;;;-0.32;64.28
73383;BME280;61600;48.126;11.542;2023-02-28T04:44:03;96038.59;;;-0.12;63.71
73383;BME280;61600;48.126;11.542;2023-02-28T04:46:29;96036.13;;;-0.07;63.83
73383;BME280;61600;48.126;11.542;2023-02-28T04:48:56;96032.41;;;-0.06;63.41
73383;BME280;61600;48.126;11.542;2023-02-28T04:51:22;96037.94;;;0.06;63.38
73383;BME280;61600;48.126;11.542;2023-02-28T04:53:48;96035.91;;;0.01;63.77
73383;BME280;61600;48.126;11.542;2023-02-28T04:56:15;96043.28;;;0.06;63.52
73383;BME280;61600;48.126;11.542;2023-02-28T04:59:02;96040.63;;;0.06;63.54
73383;BME280;61600;48.126;11.542;2023-02-28T05:01:29;96049.03;;;0.16;63.42
73383;BME280;61600;48.126;11.542;2023-02-28T05:03:58;96046.75;;;0.19;63.02
73383;BME280;61600;48.126;11.542;2023-02-28T05:06:26;96056.84;;;0.17;63.21
73383;BME280;61600;48.126;11.542;2023-02-28T05:08:52;96052.53;;;0.16;63.23
73383;BME280;61600;48.126;11.542;2023-02-28T05:11:32;96060.13;;;0.19;63.36
73383;BME280;61600;48.126;11.542;2023-02-28T05:14:03;96057.00;;;0.22;63.25
73383;BME280;61600;48.126;11.542;2023-02-28T05:16:29;96063.59;;;0.26;63.06
73383;BME280;61600;48.126;11.542;2023-02-28T05:18:55;96059.84;;;0.40;62.96
73383;BME280;61600;48.126;11.542;2023-02-28T05:21:35;96061.28;;;0.36;62.95
73383;BME280;61600;48.126;11.542;2023-02-28T05:24:03;96058.19;;;0.39;62.78
73383;BME280;61600;48.126;11.542;2023-02-28T05:26:30;96060.84;;;0.39;62.77
73383;BME280;61600;48.126;11.542;2023-02-28T05:28:56;96063.50;;;0.46;62.63
73383;BME280;61600;48.126;11.542;2023-02-28T05:31:22;96066.59;;;0.49;62.37
73383;BME280;61600;48.126;11.542;2023-02-28T05:33:48;96062.47;;;0.47;62.45
73383;BME280;61600;48.126;11.542;2023-02-28T05:36:14;96065.53;;;0.57;62.37
73383;BME280;61600;48.126;11.542;2023-02-28T05:38:40;96060.84;;;0.53;61.85
73383;BME280;61600;48.126;11.542;2023-02-28T05:41:08;96069.81;;;0.65;62.01
73383;BME280;61600;48.126;11.542;2023-02-28T05:43:35;96068.38;;;0.69;62.00
73383;BME280;61600;48.126;11.542;2023-02-28T05:46:06;96060.19;;;0.50;61.95
73383;BME280;61600;48.126;11.542;2023-02-28T05:48:36;96061.19;;;0.63;62.24
73383;BME280;61600;48.126;11.542;2023-02-28T05:51:03;96056.63;;;0.70;61.75
73383;BME280;61600;48.126;11.542;2023-02-28T05:53:30;96059.50;;;0.68;62.02
73383;BME280;61600;48.126;11.542;2023-02-28T05:55:56;96063.88;;;0.63;61.74
73383;BME280;61600;48.126;11.542;2023-02-28T05:58:22;96069.84;;;0.58;61.73
73383;BME280;61600;48.126;11.542;2023-02-28T06:00:48;96070.06;;;0.63;61.74
73383;BME280;61600;48.126;11.542;2023-02-28T06:03:14;96072.06;;;0.68;61.51
73383;BME280;61600;48.126;11.542;2023-02-28T06:05:40;96074.75;;;0.68;61.60
73383;BME280;61600;48.126;11.542;2023-02-28T06:08:06;96076.19;;;0.64;61.74
73383;BME280;61600;48.126;11.542;2023-02-28T06:10:35;96075.78;;;0.67;61.55
73383;BME280;61600;48.126;11.542;2023-02-28T06:13:02;96082.94;;;0.79;61.18
73383;BME280;61600;48.126;11.542;2023-02-28T06:15:29;96082.06;;;0.85;61.48
73383;BME280;61600;48.126;11.542;2023-02-28T06:17:55;96087.84;;;0.82;61.16
73383;BME280;61600;48.126;11.542;2023-02-28T06:20:26;96099.63;;;0.75;61.12
73383;BME280;61600;48.126;11.542;2023-02-28T06:22:56;96097.34;;;0.78;61.21
73383;BME280;61600;48.126;11.542;2023-02-28T06:25:25;96091.31;;;0.89;60.69
73383;BME280;61600;48.126;11.542;2023-02-28T06:27:51;96091.22;;;0.65;61.48
73383;BME280;61600;48.126;11.542;2023-02-28T06:30:17;96089.53;;;0.77;61.03
73383;BME280;61600;48.126;11.542;2023-02-28T06:32:43;96095.91;;;0.76;60.67
73383;BME280;61600;48.126;11.542;2023-02-28T06:35:09;96088.44;;;0.91;60.17
73383;BME280;61600;48.126;11.542;2023-02-28T06:37:35;96090.13;;;0.79;60.39
73383;BME280;61600;48.126;11.542;2023-02-28T06:40:01;96091.59;;;0.75;60.22
73383;BME280;61600;48.126;11.542;2023-02-28T06:42:28;96099.59;;;0.81;60.62
73383;BME280;61600;48.126;11.542;2023-02-28T06:44:56;96103.28;;;0.87;60.21
73383;BME280;61600;48.126;11.542;2023-02-28T06:47:22;96105.88;;;1.00;59.93
73383;BME280;61600;48.126;11.542;2023-02-28T06:49:49;96112.28;;;0.99;60.04
73383;BME280;61600;48.126;11.542;2023-02-28T06:52:15;96116.09;;;1.16;60.02
73383;BME280;61600;48.126;11.542;2023-02-28T06:54:41;96124.91;;;1.23;59.52
73383;BME280;61600;48.126;11.542;2023-02-28T06:57:07;96126.91;;;0.96;60.24
73383;BME280;61600;48.126;11.542;2023-02-28T06:59:33;96123.00;;;0.92;60.36
73383;BME280;61600;48.126;11.542;2023-02-28T07:02:01;96130.94;;;1.19;59.83
73383;BME280;61600;48.126;11.542;2023-02-28T07:04:28;96130.38;;;1.04;60.19
73383;BME280;61600;48.126;11.542;2023-02-28T07:06:54;96126.81;;;1.16;59.68
73383;BME280;61600;48.126;11.542;2023-02-28T07:09:22;96134.13;;;0.96;60.07
73383;BME280;61600;48.126;11.542;2023-02-28T07:11:48;96132.19;;;1.10;59.76
73383;BME280;61600;48.126;11.542;2023-02-28T07:14:14;96128.69;;;1.09;59.64
73383;BME280;61600;48.126;11.542;2023-02-28T07:16:40;96132.59;;;1.13;59.14
73383;BME280;61600;48.126;11.542;2023-02-28T07:19:06;96127.22;;;1.13;60.05
73383;BME280;61600;48.126;11.542;2023-02-28T07:21:32;96134.19;;;1.21;60.03
73383;BME280;61600;48.126;11.542;2023-02-28T07:23:57;96135.91;;;1.15;59.93
73383;BME280;61600;48.126;11.542;2023-02-28T07:26:23;96137.13;;;1.19;59.40
73383;BME280;61600;48.126;11.542;2023-02-28T07:28:49;96139.00;;;1.12;60.11
73383;BME280;61600;48.126;11.542;2023-02-28T07:31:16;96136.69;;;1.22;59.38
73383;BME280;61600;48.126;11.542;2023-02-28T07:33:42;96139.66;;;1.39;59.14
73383;BME280;61600;48.126;11.542;2023-02-28T07:36:11;96139.03;;;1.43;58.88
73383;BME280;61600;48.126;11.542;2023-02-28T07:38:45;96131.56;;;1.45;58.69
73383;BME280;61600;48.126;11.542;2023-02-28T07:41:12;96139.81;;;1.50;58.35
73383;BME280;61600;48.126;11.542;2023-02-28T07:43:38;96125.63;;;1.43;58.63
73383;BME280;61600;48.126;11.542;2023-02-28T07:46:08;96129.09;;;1.50;58.73
73383;BME280;61600;48.126;11.542;2023-02-28T07:48:35;96131.13;;;1.48;58.16
73383;BME280;61600;48.126;11.542;2023-02-28T07:51:01;96136.25;;;1.57;58.44
73383;BME280;61600;48.126;11.542;2023-02-28T07:53:28;96131.66;;;1.64;58.13
73383;BME280;61600;48.126;11.542;2023-02-28T07:55:56;96131.66;;;1.64;58.36
73383;BME280;61600;48.126;11.542;2023-02-28T07:58:23;96127.84;;;1.78;57.93
73383;BME280;61600;48.126;11.542;2023-02-28T08:00:50;96136.00;;;1.65;57.95
73383;BME280;61600;48.126;11.542;2023-02-28T08:03:17;96130.53;;;1.78;57.71
73383;BME280;61600;48.126;11.542;2023-02-28T08:05:44;96125.97;;;1.78;58.34
73383;BME280;61600;48.126;11.542;2023-02-28T08:08:10;96135.06;;;1.77;57.86
73383;BME280;61600;48.126;11.542;2023-02-28T08:10:36;96131.53;;;2.01;57.71
73383;BME280;61600;48.126;11.542;2023-02-28T08:13:02;96131.34;;;2.03;56.96
73383;BME280;61600;48.126;11.542;2023-02-28T08:15:28;96139.91;;;1.87;57.21
73383;BME280;61600;48.126;11.542;2023-02-28T08:17:54;96147.56;;;1.90;58.36
73383;BME280;61600;48.126;11.542;2023-02-28T08:20:22;96145.25;;;1.93;57.22
73383;BME280;61600;48.126;11.542;2023-02-28T08:22:49;96150.63;;;1.93;57.75
73383;BME280;61600;48.126;11.542;2023-02-28T08:25:14;96144.88;;;1.90;57.37
73383;BME280;61600;48.126;11.542;2023-02-28T08:27:40;96151.41;;;1.94;57.36
73383;BME280;61600;48.126;11.542;2023-02-28T08:30:07;96148.78;;;2.12;56.93
73383;BME280;61600;48.126;11.542;2023-02-28T08:32:33;96146.66;;;2.21;56.51
73383;BME280;61600;48.126;11.542;2023-02-28T08:35:00;96151.41;;;1.94;56.98
73383;BME280;61600;48.126;11.542;2023-02-28T08:37:26;96158.28;;;1.90;57.15
73383;BME280;61600;48.126;11.542;2023-02-28T08:39:51;96162.81;;;1.89;57.46
73383;BME280;61600;48.126;11.542;2023-02-28T08:42:18;96162.72;;;2.03;57.80
73383;BME280;61600;48.126;11.542;2023-02-28T08:44:44;96159.06;;;1.97;57.24
73383;BME280;61600;48.126;11.542;2023-02-28T08:47:10;96160.09;;;1.96;56.97
73383;BME280;61600;48.126;11.542;2023-02-28T08:49:36;96168.66;;;2.05;57.45
73383;BME280;61600;48.126;11.542;2023-02-28T08:52:03;96177.06;;;1.90;57.23
73383;BME280;61600;48.126;11.542;2023-02-28T08:54:29;96174.47;;;2.01;57.15
73383;BME280;61600;48.126;11.542;2023-02-28T08:56:56;96167.75;;;2.17;56.96
73383;BME280;61600;48.126;11.542;2023-02-28T08:59:22;96173.31;;;2.16;56.57
73383;BME280;61600;48.126;11.542;2023-02-28T09:01:48;96171.25;;;2.18;56.68
73383;BME280;61600;48.126;11.542;2023-02-28T09:04:14;96170.13;;;2.25;56.46
73383;BME280;61600;48.126;11.542;2023-02-28T09:06:41;96177.69;;;2.35;56.60
73383;BME280;61600;48.126;11.542;2023-02-28T09:09:07;96177.91;;;2.33;56.50
73383;BME280;61600;48.126;11.542;2023-02-28T09:11:34;96169.38;;;2.18;56.54
73383;BME280;61600;48.126;11.542;2023-02-28T09:14:01;96172.34;;;2.35;56.32
73383;BME280;61600;48.126;11.542;2023-02-28T09:16:29;96175.72;;;2.24;56.39
73383;BME280;61600;48.126;11.542;2023-02-28T09:18:56;96182.00;;;2.18;56.27
73383;BME280;61600;48.126;11.542;2023-02-28T09:21:22;96168.31;;;2.44;55.84
73383;BME280;61600;48.126;11.542;2023-02-28T09:23:51;96175.13;;;2.65;55.51
73383;BME280;61600;48.126;11.542;2023-02-28T09:26:22;96183.53;;;2.68;55.70
73383;BME280;61600;48.126;11.542;2023-02-28T09:28:48;96182.88;;;2.55;55.39
73383;BME280;61600;48.126;11.542;2023-02-28T09:31:19;96187.47;;;2.47;55.29
73383;BME280;61600;48.126;11.542;2023-02-28T09:33:52;96187.97;;;2.63;55.54
73383;BME280;61600;48.126;11.542;2023-02-28T09:36:19;96199.38;;;2.76;56.05
73383;BME280;61600;48.126;11.542;2023-02-28T09:38:45;96196.91;;;2.93;54.98
73383;BME280;61600;48.126;11.542;2023-02-28T09:41:21;96195.50;;;3.09;53.97
73383;BME280;61600;48.126;11.542;2023-02-28T09:43:54;96199.59;;;2.93;54.24
73383;BME280;61600;48.126;11.542;2023-02-28T09:48:57;96202.66;;;2.78;54.22
73383;BME280;61600;48.126;11.542;2023-02-28T09:53:57;96208.34;;;2.88;55.09
73383;BME280;61600;48.126;11.542;2023-02-28T09:56:36;96204.91;;;2.99;54.50
73383;BME280;61600;48.126;11.542;2023-02-28T09:59:13;96202.84;;;3.31;54.08
73383;BME280;61600;48.126;11.542;2023-02-28T10:04:36;96209.44;;;3.35;53.90
73383;BME280;61600;48.126;11.542;2023-02-28T10:09:53;96205.69;;;3.36;53.63
73383;BME280;61600;48.126;11.542;2023-02-28T10:12:20;96206.53;;;3.37;53.87
73383;BME280;61600;48.126;11.542;2023-02-28T10:14:49;96212.56;;;3.32;53.71
73383;BME280;61600;48.126;11.542;2023-02-28T10:17:36;96221.94;;;3.12;53.39
73383;BME280;61600;48.126;11.542;2023-02-28T10:20:17;96219.16;;;3.36;53.72
73383;BME280;61600;48.126;11.542;2023-02-28T10:22:58;96215.25;;;3.50;53.73
73383;BME280;61600;48.126;11.542;2023-02-28T10:25:28;96224.41;;;3.61;53.03
73383;BME280;61600;48.126;11.542;2023-02-28T10:28:04;96220.69;;;3.62;52.37
73383;BME280;61600;48.126;11.542;2023-02-28T10:30:31;96214.69;;;3.60;52.88
73383;BME280;61600;48.126;11.542;2023-02-28T10:32:57;96222.19;;;3.70;52.21
73383;BME280;61600;48.126;11.542;2023-02-28T10:35:24;96233.34;;;3.73;52.22
73383;BME280;61600;48.126;11.542;2023-02-28T10:37:54;96223.09;;;3.82;52.38
73383;BME280;61600;48.126;11.542;2023-02-28T10:45:26;96237.31;;;4.12;51.47
73383;BME280;61600;48.126;11.542;2023-02-28T10:48:04;96235.16;;;4.32;51.04
73383;BME280;61600;48.126;11.542;2023-02-28T10:50:44;96243.06;;;4.16;50.36
73383;BME280;61600;48.126;11.542;2023-02-28T10:58:27;96241.25;;;3.98;51.41
73383;BME280;61600;48.126;11.542;2023-02-28T11:00:53;96238.94;;;4.01;51.54
73383;BME280;61600;48.126;11.542;2023-02-28T11:03:33;96233.53;;;3.90;51.76
73383;BME280;61600;48.126;11.542;2023-02-28T11:06:08;96243.69;;;3.88;51.22
73383;BME280;61600;48.126;11.542;2023-02-28T11:08:51;96246.09;;;4.08;53.29
73383;BME280;61600;48.126;11.542;2023-02-28T11:11:18;96245.91;;;3.91;51.82
73383;BME280;61600;48.126;11.542;2023-02-28T11:13:47;96246.78;;;4.03;51.52
73383;BME280;61600;48.126;11.542;2023-02-28T11:16:15;96243.38;;;3.96;51.33
73383;BME280;61600;48.126;11.542;2023-02-28T11:18:50;96235.25;;;3.84;51.44
73383;BME280;61600;48.126;11.542;2023-02-28T11:21:24;96242.81;;;4.06;51.64
73383;BME280;61600;48.126;11.542;2023-02-28T11:23:57;96239.38;;;3.87;51.42
73383;BME280;61600;48.126;11.542;2023-02-28T11:26:38;96249.38;;;4.10;51.83
73383;BME280;61600;48.126;11.542;2023-02-28T11:29:09;96241.44;;;4.26;50.88
73383;BME280;61600;48.126;11.542;2023-02-28T11:31:36;96231.75;;;4.37;50.86
73383;BME280;61600;48.126;11.542;2023-02-28T11:34:23;96231.91;;;4.42;50.64
73383;BME280;61600;48.126;11.542;2023-02-28T11:36:49;96230.28;;;4.52;49.92
73383;BME280;61600;48.126;11.542;2023-02-28T11:39:16;96222.31;;;4.69;49.77
73383;BME280;61600;48.126;11.542;2023-02-28T11:44:47;96215.41;;;4.85;49.53
73383;BME280;61600;48.126;11.542;2023-02-28T11:55:39;96214.66;;;5.13;49.41
73383;BME280;61600;48.126;11.542;2023-02-28T11:58:53;96206.03;;;5.39;48.67
73383;BME280;61600;48.126;11.542;2023-02-28T12:06:27;96201.28;;;5.58;48.85
73383;BME280;61600;48.126;11.542;2023-02-28T12:16:33;96186.06;;;5.80;47.95
73383;BME280;61600;48.126;11.542;2023-02-28T12:19:16;96193.19;;;6.14;47.45
73383;BME280;61600;48.126;11.542;2023-02-28T12:21:48;96186.31;;;6.23;47.06
73383;BME280;61600;48.126;11.542;2023-02-28T12:27:17;96188.63;;;6.15;46.87
73383;BME280;61600;48.126;11.542;2023-02-28T12:29:55;96174.22;;;6.26;47.43
73383;BME280;61600;48.126;11.542;2023-02-28T12:32:44;96181.84;;;6.12;47.58
73383;BME280;61600;48.126;11.542;2023-02-28T12:35:28;96175.19;;;6.20;47.57
73383;BME280;61600;48.126;11.542;2023-02-28T12:38:19;96171.75;;;5.91;47.37
73383;BME280;61600;48.126;11.542;2023-02-28T12:41:00;96161.34;;;6.16;47.20
73383;BME280;61600;48.126;11.542;2023-02-28T12:43:34;96158.19;;;6.36;46.16
73383;BME280;61600;48.126;11.542;2023-02-28T12:46:17;96156.78;;;6.50;46.30
73383;BME280;61600;48.126;11.542;2023-02-28T12:48:55;96153.34;;;6.21;46.64
73383;BME280;61600;48.126;11.542;2023-02-28T12:51:23;96152.09;;;6.62;46.83
73383;BME280;61600;48.126;11.542;2023-02-28T12:56:48;96151.75;;;6.75;45.73
73383;BME280;61600;48.126;11.542;2023-02-28T12:59:32;96149.19;;;6.85;46.00
73383;BME280;61600;48.126;11.542;2023-02-28T13:05:14;96143.78;;;7.50;44.63
73383;BME280;61600;48.126;11.542;2023-02-28T13:11:25;96145.69;;;7.77;42.91
73383;BME280;61600;48.126;11.542;2023-02-28T13:14:02;96149.72;;;7.74;43.53
73383;BME280;61600;48.126;11.542;2023-02-28T13:17:32;96139.59;;;7.16;43.31
73383;BME280;61600;48.126;11.542;2023-02-28T13:19:34;96153.66;;;7.18;43.67
73383;BME280;61600;48.126;11.542;2023-02-28T13:22:05;96153.75;;;7.23;44.15
73383;BME280;61600;48.126;11.542;2023-02-28T13:24:53;96154.00;;;7.00;44.07
73383;BME280;61600;48.126;11.542;2023-02-28T13:27:21;96152.78;;;6.91;44.48
73383;BME280;61600;48.126;11.542;2023-02-28T13:29:52;96148.75;;;6.93;44.87
73383;BME280;61600;48.126;11.542;2023-02-28T13:32:19;96149.38;;;7.00;44.95
73383;BME280;61600;48.126;11.542;2023-02-28T13:39:55;96154.69;;;7.12;44.45
73383;BME280;61600;48.126;11.542;2023-02-28T13:45:21;96161.81;;;6.80;44.95
73383;BME280;61600;48.126;11.542;2023-02-28T13:48:04;96161.28;;;6.61;46.26
73383;BME280;61600;48.126;11.542;2023-02-28T13:50:40;96161.59;;;6.65;46.41
73383;BME280;61600;48.126;11.542;2023-02-28T13:56:19;96158.91;;;6.65;45.58
73383;BME280;61600;48.126;11.542;2023-02-28T13:58:54;96157.50;;;6.62;45.99
73383;BME280;61600;48.126;11.542;2023-02-28T14:01:47;96159.97;;;6.47;46.42
73383;BME280;61600;48.126;11.542;2023-02-28T14:06:53;96157.34;;;6.35;46.25
73383;BME280;61600;48.126;11.542;2023-02-28T14:09:27;96166.13;;;6.42;46.24
73383;BME280;61600;48.126;11.542;2023-02-28T14:11:54;96151.25;;;6.62;45.89
73383;BME280;61600;48.126;11.542;2023-02-28T14:17:06;96160.59;;;6.71;46.17
73383;BME280;61600;48.126;11.542;2023-02-28T14:19:35;96156.66;;;6.78;46.07
73383;BME280;61600;48.126;11.542;2023-02-28T14:25:11;96157.00;;;6.65;45.87
73383;BME280;61600;48.126;11.542;2023-02-28T14:27:50;96154.41;;;6.92;45.19
73383;BME280;61600;48.126;11.542;2023-02-28T14:36:58;96155.88;;;7.43;43.93
73383;BME280;61600;48.126;11.542;2023-02-28T14:39:21;96155.91;;;7.70;44.22
73383;BME280;61600;48.126;11.542;2023-02-28T14:41:48;96153.13;;;7.65;44.16
73383;BME280;61600;48.126;11.542;2023-02-28T14:46:43;96145.69;;;7.07;44.46
73383;BME280;61600;48.126;11.542;2023-02-28T14:49:23;96144.38;;;7.09;44.96
73383;BME280;61600;48.126;11.542;2023-02-28T14:52:02;96150.97;;;6.96;45.03
73383;BME280;61600;48.126;11.542;2023-02-28T14:54:38;96147.81;;;7.26;44.78
73383;BME280;61600;48.126;11.542;2023-02-28T14:57:04;96141.88;;;7.73;43.81
73383;BME280;61600;48.126;11.542;2023-02-28T14:59:35;96157.47;;;7.87;43.69
73383;BME280;61600;48.126;11.542;2023-02-28T15:04:59;96134.78;;;8.25;42.97
73383;BME280;61600;48.126;11.542;2023-02-28T15:07:25;96142.00;;;8.15;42.37
73383;BME280;61600;48.126;11.542;2023-02-28T15:10:24;96146.50;;;8.31;42.42
73383;BME280;61600;48.126;11.542;2023-02-28T15:13:02;96139.28;;;8.15;42.55
73383;BME280;61600;48.126;11.542;2023-02-28T15:15:35;96143.16;;;8.24;42.50